createdAt,value
2022-12-09T00:02:20.631Z,86.14
2022-12-09T00:07:23.961Z,86.18
2022-12-09T00:12:27.487Z,86.03
2022-12-09T00:17:32.782Z,86.03
2022-12-09T00:22:35.922Z,85.73
2022-12-09T00:27:39.211Z,85.72
2022-12-09T00:32:43.790Z,85.73
2022-12-09T00:37:47.920Z,85.82
2022-12-09T00:42:52.164Z,85.70
2022-12-09T00:47:56.614Z,85.57
2022-12-09T00:52:59.679Z,85.74
2022-12-09T00:58:03.168Z,85.71
2022-12-09T01:03:07.937Z,85.44
2022-12-09T01:08:12.571Z,85.30
2022-12-09T01:13:16.921Z,84.67
2022-12-09T01:18:21.666Z,85.74
2022-12-09T01:23:24.918Z,85.29
2022-12-09T01:28:27.752Z,85.62
2022-12-09T01:33:32.236Z,85.57
2022-12-09T01:38:35.314Z,85.54
2022-12-09T01:43:39.353Z,85.36
2022-12-09T01:48:47.846Z,85.11
2022-12-09T01:53:53.073Z,85.34
2022-12-09T01:59:02.568Z,85.55
2022-12-09T02:04:07.245Z,85.49
2022-12-09T02:09:11.123Z,85.36
2022-12-09T02:14:25.237Z,85.84
2022-12-09T02:19:40.572Z,85.66
2022-12-09T02:24:54.955Z,85.60
2022-12-09T02:30:09.776Z,85.65
2022-12-09T02:35:23.343Z,85.39
2022-12-09T02:40:33.035Z,85.35
2022-12-09T02:45:38.748Z,85.41
2022-12-09T02:50:46.298Z,85.34
2022-12-09T02:55:50.488Z,85.08
2022-12-09T03:00:56.491Z,85.29
2022-12-09T03:06:08.218Z,85.21
2022-12-09T03:11:14.382Z,85.16
2022-12-09T03:16:23.489Z,84.65
2022-12-09T03:21:33.320Z,84.93
2022-12-09T03:26:39.651Z,84.90
2022-12-09T03:31:43.820Z,85.02
2022-12-09T03:36:51.632Z,84.95
2022-12-09T03:41:58.403Z,84.57
2022-12-09T03:47:01.786Z,84.54
2022-12-09T03:52:12.222Z,84.01
2022-12-09T03:57:19.300Z,83.97
2022-12-09T04:02:23.619Z,84.04
2022-12-09T04:07:28.430Z,83.74
2022-12-09T04:12:31.512Z,83.46
2022-12-09T04:17:34.330Z,83.49
2022-12-09T04:22:38.850Z,83.50
2022-12-09T04:27:41.733Z,83.37
2022-12-09T04:32:45.135Z,83.33
2022-12-09T04:37:50.433Z,82.84
2022-12-09T04:42:53.525Z,83.08
2022-12-09T04:47:56.567Z,83.68
2022-12-09T04:53:01.130Z,83.39
2022-12-09T04:58:04.058Z,83.29
2022-12-09T05:03:07.273Z,83.75
2022-12-09T05:08:11.622Z,83.51
2022-12-09T05:13:15.159Z,83.73
2022-12-09T05:18:18.296Z,83.94
2022-12-09T05:23:23.255Z,83.95
2022-12-09T05:28:26.298Z,84.14
2022-12-09T05:33:29.580Z,84.10
2022-12-09T05:38:33.937Z,84.11
2022-12-09T05:43:37.737Z,83.84
2022-12-09T05:48:41.574Z,84.15
2022-12-09T05:53:46.344Z,83.87
2022-12-09T05:58:49.316Z,84.37
2022-12-09T06:03:54.191Z,84.34
2022-12-09T06:09:00.933Z,84.57
2022-12-09T06:14:04.972Z,84.67
2022-12-09T06:19:08.160Z,84.32
2022-12-09T06:24:12.556Z,84.53
2022-12-09T06:29:15.799Z,84.75
2022-12-09T06:34:18.837Z,84.93
2022-12-09T06:39:23.422Z,84.80
2022-12-09T06:44:26.395Z,84.45
2022-12-09T06:49:29.540Z,83.72
2022-12-09T06:54:35.296Z,83.62
2022-12-09T06:59:38.239Z,84.26
2022-12-09T07:04:41.436Z,84.19
2022-12-09T07:09:45.829Z,83.99
2022-12-09T07:14:49.262Z,83.86
2022-12-09T07:19:52.182Z,83.83
2022-12-09T07:24:57.259Z,83.85
2022-12-09T07:30:00.524Z,83.79
2022-12-09T07:35:03.911Z,84.18
2022-12-09T07:40:09.348Z,84.46
2022-12-09T07:45:13.386Z,84.27
2022-12-09T07:50:17.205Z,84.35
2022-12-09T07:55:21.575Z,85.24
2022-12-09T08:00:24.508Z,84.04
2022-12-09T08:05:27.458Z,84.54
2022-12-09T08:10:31.830Z,83.32
2022-12-09T08:15:34.741Z,83.42
2022-12-09T08:20:38.539Z,83.54
2022-12-09T08:25:43.297Z,83.66
2022-12-09T08:30:46.500Z,83.70
2022-12-09T08:35:50.142Z,83.81
2022-12-09T08:40:54.766Z,83.69
2022-12-09T08:46:01.790Z,84.16
2022-12-09T08:51:05.861Z,84.16
2022-12-09T08:56:12.242Z,84.05
2022-12-09T09:01:17.424Z,84.17
2022-12-09T09:06:21.147Z,84.32
2022-12-09T09:11:26.941Z,83.23
2022-12-09T09:16:30.047Z,83.66
2022-12-09T09:21:34.575Z,82.97
2022-12-09T09:26:40.896Z,83.09
2022-12-09T09:31:44.239Z,81.67
2022-12-09T09:36:47.793Z,82.49
2022-12-09T09:41:55.493Z,81.12
2022-12-09T09:47:00.607Z,79.01
2022-12-09T09:52:09.616Z,79.70
2022-12-09T09:57:18.795Z,79.06
2022-12-09T10:02:37.914Z,78.31
2022-12-09T10:07:43.664Z,78.38
2022-12-09T10:13:08.078Z,78.13
2022-12-09T10:18:19.160Z,78.33
2022-12-09T10:23:23.419Z,78.44
2022-12-09T10:28:31.984Z,78.08
2022-12-09T10:33:39.010Z,77.21
2022-12-09T10:38:42.726Z,77.34
2022-12-09T10:43:47.335Z,78.08
2022-12-09T10:48:58.799Z,77.84
2022-12-09T10:54:05.023Z,78.09
2022-12-09T10:59:20.503Z,79.07
2022-12-09T11:04:26.374Z,76.28
2022-12-09T11:09:32.672Z,76.65
2022-12-09T11:14:40.475Z,77.80
2022-12-09T11:19:45.573Z,78.53
2022-12-09T11:24:49.046Z,79.07
2022-12-09T11:30:12.480Z,78.24
2022-12-09T11:35:18.937Z,75.45
2022-12-09T11:40:22.913Z,75.72
2022-12-09T11:45:30.904Z,76.98
2022-12-09T11:50:36.500Z,75.65
2022-12-09T11:55:45.095Z,73.42
2022-12-09T12:00:59.343Z,75.42
2022-12-09T12:06:05.147Z,77.39
2022-12-09T12:11:15.053Z,77.31
2022-12-09T12:16:27.278Z,74.98
2022-12-09T12:21:47.029Z,78.00
2022-12-09T12:27:04.794Z,77.77
2022-12-09T12:32:40.400Z,75.91
2022-12-09T12:37:51.790Z,72.18
2022-12-09T12:43:23.680Z,74.14
2022-12-09T12:48:35.179Z,74.05
2022-12-09T12:53:46.701Z,75.93
2022-12-09T12:59:02.858Z,77.37
2022-12-09T13:04:18.648Z,79.22
2022-12-09T13:09:26.684Z,73.34
2022-12-09T13:14:34.187Z,70.83
2022-12-09T13:19:42.670Z,71.89
2022-12-09T13:24:56.857Z,72.83
2022-12-09T13:30:07.619Z,72.81
2022-12-09T13:35:17.700Z,73.34
2022-12-09T13:40:36.646Z,73.65
2022-12-09T13:45:50.217Z,75.16
2022-12-09T13:50:59.598Z,74.19
2022-12-09T13:56:05.583Z,74.37
2022-12-09T14:01:19.287Z,77.11
2022-12-09T14:06:27.547Z,78.21
2022-12-09T14:11:48.480Z,76.65
2022-12-09T14:16:51.968Z,74.53
2022-12-09T14:22:56.657Z,73.09
2022-12-09T14:28:36.256Z,72.03
2022-12-09T14:33:42.163Z,73.22
2022-12-09T14:39:15.763Z,73.58
2022-12-09T14:44:26.420Z,70.55
2022-12-09T14:49:30.949Z,71.77
2022-12-09T14:54:36.568Z,73.55
2022-12-09T14:59:49.178Z,74.92
2022-12-09T15:04:52.827Z,75.74
2022-12-09T15:09:57.949Z,74.19
2022-12-09T15:15:06.960Z,75.52
2022-12-09T15:20:23.656Z,76.95
2022-12-09T15:25:27.385Z,77.14
2022-12-09T15:30:34.367Z,76.88
2022-12-09T15:35:37.359Z,76.90
2022-12-09T15:41:00.324Z,78.13
2022-12-09T15:46:05.438Z,78.78
2022-12-09T15:51:15.236Z,78.66
2022-12-09T15:56:23.284Z,79.41
2022-12-09T16:01:30.641Z,79.27
2022-12-09T16:06:36.192Z,79.65
2022-12-09T16:11:40.778Z,79.71
2022-12-09T16:16:48.194Z,79.98
2022-12-09T16:21:54.251Z,79.92
2022-12-09T16:26:57.610Z,79.71
2022-12-09T16:32:21.715Z,80.17
2022-12-09T16:37:37.344Z,79.91
2022-12-09T16:42:41.129Z,79.56
2022-12-09T16:47:46.156Z,79.78
2022-12-09T16:52:49.286Z,80.03
2022-12-09T16:57:52.607Z,80.40
2022-12-09T17:03:02.646Z,80.76
2022-12-09T17:08:05.910Z,80.58
2022-12-09T17:13:08.699Z,80.49
2022-12-09T17:18:12.860Z,80.24
2022-12-09T17:23:15.612Z,80.16
2022-12-09T17:28:18.368Z,80.62
2022-12-09T17:33:25.245Z,80.15
2022-12-09T17:38:30.330Z,79.71
2022-12-09T17:43:33.523Z,79.87
2022-12-09T17:48:39.389Z,79.60
2022-12-09T17:53:43.503Z,78.67
2022-12-09T17:58:47.205Z,78.90
2022-12-09T18:03:56.596Z,78.66
2022-12-09T18:09:00.861Z,78.87
2022-12-09T18:14:04.182Z,78.96
2022-12-09T18:19:12.701Z,79.15
2022-12-09T18:24:15.528Z,79.39
2022-12-09T18:29:18.393Z,79.42
2022-12-09T18:34:23.183Z,79.23
2022-12-09T18:39:25.935Z,79.51
2022-12-09T18:44:28.699Z,79.39
2022-12-09T18:49:32.846Z,79.66
2022-12-09T18:54:36.530Z,79.83
2022-12-09T18:59:39.316Z,79.45
2022-12-09T19:04:43.631Z,79.58
2022-12-09T19:09:46.492Z,79.24
2022-12-09T19:14:49.284Z,79.19
2022-12-09T19:19:53.422Z,79.31
2022-12-09T19:24:56.146Z,79.32
2022-12-09T19:29:58.953Z,79.46
2022-12-09T19:35:03.283Z,79.87
2022-12-09T19:40:08.439Z,79.39
2022-12-09T19:45:14.343Z,79.29
2022-12-09T19:50:19.878Z,79.64
2022-12-09T19:55:22.647Z,79.10
2022-12-09T20:00:25.459Z,79.12
2022-12-09T20:05:29.636Z,78.42
2022-12-09T20:10:32.414Z,79.07
2022-12-09T20:15:37.456Z,78.86
2022-12-09T20:20:47.177Z,78.71
2022-12-09T20:25:51.497Z,78.52
2022-12-09T20:30:54.377Z,78.45
2022-12-09T20:36:04.581Z,78.53
2022-12-09T20:41:11.028Z,78.21
2022-12-09T20:46:16.339Z,78.46
2022-12-09T20:51:23.688Z,78.51
2022-12-09T20:56:27.835Z,78.45
2022-12-09T21:01:32.640Z,78.41
2022-12-09T21:06:39.376Z,78.61
2022-12-09T21:11:42.269Z,78.50
2022-12-09T21:16:46.843Z,78.28
2022-12-09T21:21:50.932Z,77.99
2022-12-09T21:26:55.957Z,77.79
2022-12-09T21:31:58.656Z,78.05
2022-12-09T21:37:02.904Z,78.07
2022-12-09T21:42:05.847Z,78.15
2022-12-09T21:47:08.555Z,78.39
2022-12-09T21:52:12.625Z,78.62
2022-12-09T21:57:15.562Z,78.87
2022-12-09T22:02:18.388Z,78.57
2022-12-09T22:07:22.549Z,78.36
2022-12-09T22:12:25.360Z,78.50
2022-12-09T22:17:28.252Z,78.87
2022-12-09T22:22:32.348Z,78.50
2022-12-09T22:27:35.261Z,78.35
2022-12-09T22:32:41.544Z,78.49
2022-12-09T22:37:48.049Z,78.67
2022-12-09T22:42:51.339Z,78.58
2022-12-09T22:47:55.342Z,79.07
2022-12-09T22:52:59.466Z,79.01
2022-12-09T22:58:02.271Z,79.18
2022-12-09T23:03:05.215Z,79.80
2022-12-09T23:08:09.557Z,80.00
2022-12-09T23:13:12.537Z,79.29
2022-12-09T23:18:15.356Z,79.62
2022-12-09T23:23:20.561Z,79.79
2022-12-09T23:28:23.297Z,80.24
2022-12-09T23:33:26.070Z,80.48
2022-12-09T23:38:30.177Z,80.41
2022-12-09T23:43:33.811Z,80.09
2022-12-09T23:48:37.064Z,79.98
2022-12-09T23:53:42.303Z,79.48
2022-12-09T23:58:45.679Z,79.29
